Time;durP1;ratioP1;P1;durP2;ratioP2;P2;SDS_P1;SDS_P2;PMS_P1;PMS_P2;Temp;Humidity;BMP_temperature;BMP_pressure;BME280_temperature;BME280_humidity;BME280_pressure;Samples;Min_cycle;Max_cycle;Signal;HPM_P1;HPM_P2
2022/12/25 00:00:38;;;;;;;50.78;15.98;;;5.90;99.90;;;;;;5120722;27;20039;-57
2022/12/25 00:03:05;;;;;;;46.33;15.88;;;5.90;99.90;;;;;;5139217;27;20039;-57
2022/12/25 00:05:30;;;;;;;38.50;15.50;;;5.60;99.90;;;;;;5138512;27;20058;-57
2022/12/25 00:07:56;;;;;;;40.90;14.80;;;5.30;99.90;;;;;;5139494;27;20043;-57
2022/12/25 00:10:22;;;;;;;42.60;14.10;;;5.90;99.90;;;;;;5138459;27;20127;-57
2022/12/25 00:12:48;;;;;;;40.97;15.75;;;5.60;99.90;;;;;;5139060;27;20043;-57
2022/12/25 00:15:14;;;;;;;46.65;14.82;;;5.60;99.90;;;;;;5138300;27;20043;-57
2022/12/25 00:17:39;;;;;;;46.45;14.57;;;5.90;99.90;;;;;;5139006;27;20057;-57
2022/12/25 00:20:06;;;;;;;41.40;13.98;;;5.90;99.90;;;;;;5138664;27;20039;-57
2022/12/25 00:22:31;;;;;;;48.40;14.40;;;5.60;99.90;;;;;;5120583;28;20114;-57
2022/12/25 00:24:57;;;;;;;46.00;16.95;;;5.70;99.90;;;;;;5139096;27;20061;-57
2022/12/25 00:27:23;;;;;;;44.25;13.65;;;5.50;99.90;;;;;;5138366;27;20039;-56
2022/12/25 00:29:49;;;;;;;37.75;13.80;;;5.30;99.90;;;;;;5120640;28;20031;-57
2022/12/25 00:32:15;;;;;;;43.25;13.85;;;5.80;99.90;;;;;;5138052;28;20039;-57
2022/12/25 00:34:40;;;;;;;48.08;18.92;;;5.20;99.90;;;;;;5120683;28;20043;-57
2022/12/25 00:37:06;;;;;;;58.35;17.15;;;5.20;99.90;;;;;;5137956;28;20047;-57
2022/12/25 00:39:32;;;;;;;46.72;16.40;;;5.70;99.90;;;;;;5138812;28;20035;-59
2022/12/25 00:44:42;;;;;;;63.72;17.73;;;5.70;99.90;;;;;;5137929;28;20076;-58
2022/12/25 00:47:07;;;;;;;49.42;15.05;;;5.30;99.90;;;;;;5138592;28;20031;-58
2022/12/25 00:49:33;;;;;;;52.65;15.88;;;5.50;99.90;;;;;;5137767;28;20047;-59
2022/12/25 00:51:58;;;;;;;55.50;17.83;;;5.30;99.90;;;;;;5139021;28;20087;-58
2022/12/25 00:54:24;;;;;;;55.05;17.13;;;5.50;99.90;;;;;;5138188;28;20039;-58
2022/12/25 00:56:50;;;;;;;46.92;18.23;;;5.50;99.90;;;;;;5158329;27;20050;-58
2022/12/25 00:59:16;;;;;;;47.45;17.10;;;5.70;99.90;;;;;;5161466;27;20039;-58
2022/12/25 01:01:41;;;;;;;63.13;19.98;;;6.00;99.90;;;;;;5162532;27;20122;-58
2022/12/25 01:04:08;;;;;;;58.42;19.15;;;6.00;99.90;;;;;;5163607;27;20039;-57
2022/12/25 01:06:34;;;;;;;64.93;20.33;;;6.10;99.90;;;;;;5126553;27;20098;-58
2022/12/25 01:11:44;;;;;;;82.13;21.88;;;5.60;99.90;;;;;;5162833;27;20054;-58
2022/12/25 01:14:10;;;;;;;63.47;20.52;;;6.00;99.90;;;;;;5162566;27;20043;-58
2022/12/25 01:16:36;;;;;;;63.67;21.58;;;5.70;99.90;;;;;;5163227;27;20121;-58
2022/12/25 01:19:02;;;;;;;70.28;22.40;;;5.90;99.90;;;;;;5162184;27;20087;-58
2022/12/25 01:21:28;;;;;;;77.28;22.63;;;6.00;99.90;;;;;;5163315;27;20095;-58
2022/12/25 01:23:54;;;;;;;83.70;21.17;;;6.10;99.90;;;;;;5162482;27;20505;-58
2022/12/25 01:26:22;;;;;;;90.20;22.95;;;6.40;99.90;;;;;;5163126;27;20039;-58
2022/12/25 01:28:48;;;;;;;84.47;23.95;;;5.80;99.90;;;;;;5143843;27;20050;-58
2022/12/25 01:31:16;;;;;;;104.60;24.33;;;5.70;99.90;;;;;;5162592;27;20039;-58
2022/12/25 01:33:43;;;;;;;78.65;23.35;;;6.00;99.90;;;;;;5162871;27;20043;-58
2022/12/25 01:36:19;;;;;;;76.40;22.52;;;5.90;99.90;;;;;;5143559;27;20045;-58
2022/12/25 01:38:46;;;;;;;73.00;23.67;;;5.90;99.90;;;;;;5163137;27;20031;-58
2022/12/25 01:41:14;;;;;;;80.10;24.10;;;6.50;99.90;;;;;;5161806;27;20383;-58
2022/12/25 01:44:02;;;;;;;77.28;22.58;;;5.90;99.90;;;;;;5162671;27;20509;-58
2022/12/25 01:46:29;;;;;;;73.47;22.10;;;5.90;99.90;;;;;;5162550;27;20086;-58
2022/12/25 01:49:02;;;;;;;57.60;20.13;;;5.90;99.90;;;;;;5161997;27;20053;-58
2022/12/25 01:51:47;;;;;;;63.78;21.92;;;6.00;99.90;;;;;;5162553;27;20035;-58
2022/12/25 01:54:22;;;;;;;80.32;22.83;;;6.60;99.90;;;;;;5162129;27;20031;-58
2022/12/25 01:56:50;;;;;;;72.40;22.77;;;6.20;99.90;;;;;;5142577;27;20054;-58
2022/12/25 01:59:19;;;;;;;66.57;21.52;;;5.90;99.90;;;;;;5141620;27;20091;-58
2022/12/25 02:01:46;;;;;;;64.43;23.40;;;6.40;99.90;;;;;;5140843;27;20074;-58
2022/12/25 02:04:37;;;;;;;63.60;23.00;;;6.50;99.90;;;;;;5141408;27;20076;-58
2022/12/25 02:07:13;;;;;;;75.90;22.85;;;6.40;99.90;;;;;;5141197;27;20118;-59
2022/12/25 02:09:39;;;;;;;74.50;23.83;;;6.00;99.90;;;;;;5140562;27;20050;-58
2022/12/25 02:12:06;;;;;;;75.45;23.77;;;5.90;99.90;;;;;;5140716;27;20429;-60
2022/12/25 02:14:35;;;;;;;57.20;20.20;;;6.80;99.90;;;;;;5140166;27;20055;-58
2022/12/25 02:17:18;;;;;;;72.22;22.15;;;6.00;99.90;;;;;;5141154;27;20053;-58
2022/12/25 02:19:59;;;;;;;55.72;22.27;;;6.20;99.90;;;;;;5140956;27;20039;-58
2022/12/25 02:22:46;;;;;;;61.55;22.60;;;6.40;99.90;;;;;;5141080;27;20560;-58
2022/12/25 02:25:30;;;;;;;64.55;22.42;;;6.30;99.90;;;;;;5141382;27;20051;-58
2022/12/25 02:28:20;;;;;;;67.82;25.80;;;6.90;99.90;;;;;;5140349;27;20043;-58
2022/12/25 02:30:53;;;;;;;63.53;23.05;;;6.80;99.90;;;;;;5140949;27;20122;-58
2022/12/25 02:36:28;;;;;;;62.10;23.95;;;6.90;99.90;;;;;;5140402;27;20062;-58
2022/12/25 02:41:44;;;;;;;81.60;26.70;;;6.20;99.90;;;;;;5140459;27;20054;-59
2022/12/25 03:06:55;;;;;;;74.97;25.90;;;6.40;99.90;;;;;;5160455;27;20099;-59
2022/12/25 03:12:57;;;;;;;69.93;28.90;;;6.90;99.90;;;;;;5161178;27;20461;-58
2022/12/25 03:18:13;;;;;;;88.65;30.48;;;6.90;99.90;;;;;;5160357;27;20076;-59
2022/12/25 03:28:57;;;;;;;68.70;28.00;;;7.40;99.90;;;;;;5160644;27;20058;-59
2022/12/25 03:31:40;;;;;;;69.68;27.65;;;7.20;99.90;;;;;;5159932;27;20047;-59
2022/12/25 04:38:30;;;;;;;74.32;28.60;;;7.20;99.90;;;;;;5139126;28;20042;-59
2022/12/25 04:40:56;;;;;;;80.38;29.83;;;6.90;99.90;;;;;;5119571;28;20092;-57
2022/12/25 04:43:23;;;;;;;81.93;28.95;;;7.80;99.90;;;;;;5139140;28;20039;-58
2022/12/25 04:45:57;;;;;;;77.82;29.83;;;7.80;99.90;;;;;;5138516;28;20043;-58
2022/12/25 04:48:23;;;;;;;73.93;28.40;;;7.90;99.90;;;;;;5120009;28;20437;-58
2022/12/25 04:50:49;;;;;;;90.90;29.25;;;7.00;99.90;;;;;;5138846;28;20502;-59
2022/12/25 04:53:17;;;;;;;80.43;27.90;;;7.40;99.90;;;;;;5138109;28;20180;-58
2022/12/25 04:55:43;;;;;;;73.32;28.45;;;7.00;99.90;;;;;;5149290;27;20034;-58
2022/12/25 04:58:09;;;;;;;85.93;29.00;;;7.00;99.90;;;;;;5139912;27;20060;-58
2022/12/25 05:00:35;;;;;;;97.78;31.08;;;8.00;99.90;;;;;;5159729;27;20042;-58
2022/12/25 05:03:01;;;;;;;87.50;29.55;;;7.00;99.90;;;;;;5159162;27;20038;-58
2022/12/25 05:05:26;;;;;;;82.75;28.88;;;7.90;99.90;;;;;;5140184;27;20064;-58
2022/12/25 05:07:52;;;;;;;89.80;30.58;;;7.00;99.90;;;;;;5159368;27;20562;-58
2022/12/25 05:10:19;;;;;;;78.07;28.60;;;7.60;99.90;;;;;;5140171;27;20034;-59
2022/12/25 05:12:44;;;;;;;78.85;29.50;;;7.00;99.90;;;;;;5158834;27;20094;-59
2022/12/25 05:15:10;;;;;;;86.53;29.15;;;7.10;99.90;;;;;;5158427;27;20580;-58
2022/12/25 05:17:36;;;;;;;78.07;27.88;;;8.00;99.90;;;;;;5141069;27;20034;-58
2022/12/25 05:20:03;;;;;;;81.43;28.20;;;7.80;99.90;;;;;;5158404;27;20521;-57
2022/12/25 05:22:29;;;;;;;84.30;29.25;;;7.10;99.90;;;;;;5158825;27;20027;-59
2022/12/25 05:24:54;;;;;;;89.57;28.83;;;8.10;99.90;;;;;;5159263;27;20046;-58
2022/12/25 05:27:20;;;;;;;74.40;27.13;;;8.10;99.90;;;;;;5158586;27;20043;-58
2022/12/25 05:29:46;;;;;;;77.80;27.23;;;7.10;99.90;;;;;;5158996;27;20049;-57
2022/12/25 05:32:11;;;;;;;74.97;27.65;;;7.10;99.90;;;;;;5158533;27;20043;-59
2022/12/25 05:34:37;;;;;;;74.60;26.75;;;7.30;99.90;;;;;;5158654;27;20045;-58
2022/12/25 05:37:02;;;;;;;84.30;28.55;;;8.20;99.90;;;;;;5158641;27;20050;-58
2022/12/25 05:39:28;;;;;;;75.38;27.77;;;8.30;99.90;;;;;;5158853;27;20075;-58
2022/12/25 05:41:54;;;;;;;79.50;28.15;;;7.30;99.90;;;;;;5158731;27;20050;-58
2022/12/25 05:44:20;;;;;;;74.70;28.02;;;8.00;99.90;;;;;;5159167;27;20043;-58
2022/12/25 05:46:45;;;;;;;75.80;26.50;;;8.20;99.90;;;;;;5162503;27;20098;-58
2022/12/25 05:49:11;;;;;;;82.32;28.52;;;7.60;99.90;;;;;;5162193;27;20114;-58
2022/12/25 05:51:37;;;;;;;69.63;25.52;;;8.20;99.90;;;;;;5162601;27;20072;-58
2022/12/25 05:54:03;;;;;;;80.30;27.80;;;7.60;99.90;;;;;;5162236;27;20504;-58
2022/12/25 05:56:29;;;;;;;80.03;28.48;;;8.10;99.90;;;;;;5126599;27;20042;-58
2022/12/25 05:58:54;;;;;;;79.85;28.45;;;7.50;99.90;;;;;;5141668;27;20043;-58
2022/12/25 06:01:26;;;;;;;75.15;26.20;;;8.20;99.90;;;;;;5122611;27;20123;-57
2022/12/25 06:03:52;;;;;;;91.38;28.05;;;7.90;99.90;;;;;;5141601;27;20394;-58
2022/12/25 06:06:18;;;;;;;91.82;29.33;;;7.60;99.90;;;;;;5140956;27;20439;-58
2022/12/25 06:08:44;;;;;;;89.07;28.63;;;8.30;99.90;;;;;;5141660;27;20118;-58
2022/12/25 06:11:12;;;;;;;86.85;29.65;;;7.80;99.90;;;;;;5141199;27;20497;-58
2022/12/25 06:13:37;;;;;;;84.32;28.88;;;7.30;99.90;;;;;;5141104;27;20039;-58
2022/12/25 06:16:07;;;;;;;79.93;28.70;;;7.60;99.90;;;;;;5141076;27;20522;-58
2022/12/25 06:18:37;;;;;;;82.35;29.90;;;8.30;99.90;;;;;;5140979;27;20460;-57
2022/12/25 06:21:11;;;;;;;75.07;27.52;;;7.60;99.90;;;;;;5141214;27;20204;-58
2022/12/25 06:23:38;;;;;;;93.15;29.55;;;7.50;99.90;;;;;;5141028;27;20095;-58
2022/12/25 06:26:09;;;;;;;97.00;28.35;;;7.30;99.90;;;;;;5140990;27;20035;-57
2022/12/25 06:28:35;;;;;;;86.65;30.27;;;7.30;99.90;;;;;;5140677;27;20083;-57
2022/12/25 06:31:06;;;;;;;80.95;29.95;;;7.50;99.90;;;;;;5140575;27;20039;-57
2022/12/25 06:33:32;;;;;;;96.13;32.30;;;7.60;99.90;;;;;;5122880;27;20051;-57
2022/12/25 06:35:57;;;;;;;94.95;31.27;;;8.40;99.90;;;;;;5140087;27;20399;-57
2022/12/25 06:38:23;;;;;;;89.47;29.48;;;8.30;99.90;;;;;;5140846;27;20047;-58
2022/12/25 06:40:49;;;;;;;89.53;32.13;;;7.30;99.90;;;;;;5140413;27;20039;-58
2022/12/25 06:43:14;;;;;;;85.70;29.83;;;7.40;99.90;;;;;;5140392;27;20039;-57
2022/12/25 06:45:40;;;;;;;88.10;29.95;;;8.20;99.90;;;;;;5140820;27;20517;-57
2022/12/25 06:48:06;;;;;;;94.07;31.80;;;7.40;99.90;;;;;;5140439;27;20136;-57
2022/12/25 06:50:31;;;;;;;90.18;33.03;;;7.30;99.90;;;;;;5140984;27;20038;-57
2022/12/25 06:52:57;;;;;;;85.10;30.20;;;7.70;99.90;;;;;;5139757;27;20039;-58
2022/12/25 06:55:22;;;;;;;102.13;31.02;;;8.00;99.90;;;;;;5148441;27;20042;-57
2022/12/25 06:57:48;;;;;;;105.05;31.23;;;7.30;99.90;;;;;;5159739;27;20163;-58
2022/12/25 07:00:14;;;;;;;87.88;30.63;;;8.30;99.90;;;;;;5161252;27;20050;-57
2022/12/25 07:02:46;;;;;;;92.00;29.33;;;8.10;99.90;;;;;;5160859;27;20102;-57
2022/12/25 07:05:11;;;;;;;83.05;31.10;;;7.30;99.90;;;;;;5142280;27;20054;-57
2022/12/25 07:07:37;;;;;;;95.32;32.70;;;7.50;99.90;;;;;;5161393;27;20049;-58
2022/12/25 07:10:03;;;;;;;94.28;31.50;;;8.00;99.90;;;;;;5160320;27;20078;-57
2022/12/25 07:12:28;;;;;;;89.40;31.48;;;8.40;99.90;;;;;;5160638;27;20046;-57
2022/12/25 07:14:55;;;;;;;93.80;32.10;;;7.80;99.90;;;;;;5160072;27;20054;-57
2022/12/25 07:17:22;;;;;;;82.45;29.35;;;8.40;99.90;;;;;;5160899;27;20043;-58
2022/12/25 07:19:48;;;;;;;83.65;29.08;;;7.50;99.90;;;;;;5160534;27;20046;-57
2022/12/25 07:22:15;;;;;;;89.50;29.10;;;8.10;99.90;;;;;;5160362;27;20518;-57
2022/12/25 07:24:42;;;;;;;82.40;28.83;;;8.40;99.90;;;;;;5160943;27;20037;-57
2022/12/25 07:27:07;;;;;;;98.88;29.10;;;7.80;99.90;;;;;;5159681;27;20053;-57
2022/12/25 07:29:33;;;;;;;92.05;29.40;;;8.20;99.90;;;;;;5160966;27;20039;-57
2022/12/25 07:31:59;;;;;;;77.07;28.38;;;8.40;99.90;;;;;;5159757;27;20043;-58
2022/12/25 07:34:25;;;;;;;90.03;29.48;;;7.30;99.90;;;;;;5160761;27;20079;-57
2022/12/25 07:36:51;;;;;;;84.43;26.65;;;7.90;99.90;;;;;;5159677;27;20038;-55
2022/12/25 07:39:16;;;;;;;89.35;27.45;;;8.40;99.90;;;;;;5160472;27;20091;-58
2022/12/25 07:41:42;;;;;;;78.85;26.42;;;8.40;99.90;;;;;;5160007;27;20070;-57
2022/12/25 07:44:08;;;;;;;82.30;25.65;;;8.30;99.90;;;;;;5159861;27;20043;-58
2022/12/25 07:46:34;;;;;;;82.07;25.17;;;8.40;99.90;;;;;;5160688;27;20048;-57
2022/12/25 07:49:00;;;;;;;76.38;25.65;;;7.80;99.90;;;;;;5159417;27;20046;-58
2022/12/25 07:51:28;;;;;;;78.25;24.23;;;8.50;99.90;;;;;;5141936;27;20042;-58
2022/12/25 07:53:55;;;;;;;73.65;24.85;;;7.50;99.90;;;;;;5159381;27;20558;-56
2022/12/25 07:56:20;;;;;;;72.43;25.42;;;8.10;99.90;;;;;;5144095;27;20039;-57
2022/12/25 07:58:47;;;;;;;73.45;26.63;;;8.50;99.90;;;;;;5139129;27;20050;-57
2022/12/25 08:01:16;;;;;;;76.40;24.60;;;8.50;99.90;;;;;;5138799;27;20051;-58
2022/12/25 08:03:43;;;;;;;67.80;23.30;;;8.50;99.90;;;;;;5139641;27;20102;-57
2022/12/25 08:06:10;;;;;;;66.80;22.13;;;7.50;99.90;;;;;;5119976;27;20035;-57
2022/12/25 08:08:37;;;;;;;64.20;22.83;;;7.50;99.90;;;;;;5138238;27;20043;-58
2022/12/25 08:11:05;;;;;;;61.80;23.13;;;8.10;99.90;;;;;;5138578;27;20070;-58
2022/12/25 08:13:31;;;;;;;68.43;21.80;;;7.50;99.90;;;;;;5139091;27;20074;-58
2022/12/25 08:15:59;;;;;;;63.95;22.38;;;8.50;99.90;;;;;;5139010;27;20071;-58
2022/12/25 08:18:25;;;;;;;58.83;21.90;;;7.50;99.90;;;;;;5138623;27;20051;-58
2022/12/25 08:20:51;;;;;;;60.83;21.55;;;7.80;99.90;;;;;;5139000;27;20050;-58
2022/12/25 08:23:16;;;;;;;59.50;21.65;;;8.40;99.90;;;;;;5138123;27;20084;-58
2022/12/25 08:25:42;;;;;;;55.10;20.90;;;8.50;99.90;;;;;;5139291;27;20096;-57
2022/12/25 08:28:08;;;;;;;57.25;21.48;;;7.90;99.90;;;;;;5138152;27;20047;-58
2022/12/25 08:30:33;;;;;;;54.30;20.63;;;7.70;99.90;;;;;;5139250;27;20070;-58
2022/12/25 08:32:59;;;;;;;51.97;20.40;;;8.60;99.90;;;;;;5138591;28;20060;-57
2022/12/25 08:35:25;;;;;;;49.70;20.00;;;8.60;99.90;;;;;;5138798;28;20035;-58
2022/12/25 08:37:51;;;;;;;56.92;20.85;;;8.60;99.90;;;;;;5120232;28;20042;-58
2022/12/25 08:40:17;;;;;;;51.15;19.75;;;7.70;99.90;;;;;;5138258;28;20051;-58
2022/12/25 08:42:42;;;;;;;50.33;18.05;;;7.60;99.90;;;;;;5138493;28;20090;-58
2022/12/25 08:45:09;;;;;;;50.92;21.05;;;8.60;99.90;;;;;;5138202;28;20051;-58
2022/12/25 08:47:34;;;;;;;49.50;20.10;;;8.60;99.90;;;;;;5138835;28;20421;-56
2022/12/25 08:50:00;;;;;;;46.22;19.63;;;8.50;99.90;;;;;;5138444;28;20035;-55
2022/12/25 08:52:27;;;;;;;54.55;19.63;;;7.60;99.90;;;;;;5138270;28;20133;-57
2022/12/25 08:54:53;;;;;;;48.90;20.15;;;8.50;99.90;;;;;;5142068;27;20037;-56
2022/12/25 08:57:19;;;;;;;48.30;19.23;;;8.50;99.90;;;;;;5158977;27;20047;-57
2022/12/25 08:59:44;;;;;;;47.72;19.25;;;8.00;99.90;;;;;;5159088;27;20031;-57
2022/12/25 09:02:11;;;;;;;41.38;18.15;;;8.30;99.90;;;;;;5158931;27;20054;-56
2022/12/25 09:04:37;;;;;;;43.38;19.52;;;8.70;99.90;;;;;;5159201;27;20042;-57
2022/12/25 09:07:02;;;;;;;43.20;18.00;;;7.80;99.90;;;;;;5158733;27;20451;-57
2022/12/25 09:09:28;;;;;;;41.53;18.00;;;7.90;99.90;;;;;;5140474;27;20049;-58
2022/12/25 09:11:54;;;;;;;37.58;17.80;;;8.70;99.90;;;;;;5159464;27;20478;-57
2022/12/25 09:14:20;;;;;;;35.35;17.02;;;8.70;99.90;;;;;;5158611;27;20091;-57
2022/12/25 09:16:48;;;;;;;38.40;18.00;;;7.80;99.90;;;;;;5159182;27;20053;-57
2022/12/25 09:19:14;;;;;;;37.40;16.05;;;7.90;99.90;;;;;;5159124;27;20456;-57
2022/12/25 09:21:39;;;;;;;40.58;17.02;;;7.80;99.90;;;;;;5163018;27;20031;-57
2022/12/25 09:24:05;;;;;;;33.45;15.52;;;8.70;99.90;;;;;;5162778;27;20039;-57
2022/12/25 09:26:31;;;;;;;39.50;16.83;;;7.80;99.90;;;;;;5162711;27;20042;-58
2022/12/25 09:28:56;;;;;;;33.90;15.73;;;7.90;99.90;;;;;;5144324;27;20071;-58
2022/12/25 09:31:22;;;;;;;31.23;14.85;;;8.70;99.90;;;;;;5143801;27;20480;-57
2022/12/25 09:33:49;;;;;;;34.70;14.30;;;7.90;99.90;;;;;;5162918;27;20078;-57
2022/12/25 09:36:14;;;;;;;31.13;16.45;;;8.70;99.90;;;;;;5162372;27;20051;-56
2022/12/25 09:38:40;;;;;;;31.17;14.32;;;8.00;99.90;;;;;;5162999;27;20629;-57
2022/12/25 09:41:11;;;;;;;31.38;14.27;;;8.70;99.90;;;;;;5162521;27;20040;-57
2022/12/25 09:43:44;;;;;;;37.25;14.73;;;7.90;99.90;;;;;;5162102;27;20046;-57
2022/12/25 09:46:16;;;;;;;31.42;13.90;;;8.70;99.90;;;;;;5162960;27;20039;-57
2022/12/25 09:48:47;;;;;;;29.02;14.70;;;8.10;99.90;;;;;;5161863;27;20391;-58
2022/12/25 09:51:15;;;;;;;28.60;13.93;;;8.80;99.90;;;;;;5162744;27;20046;-57
2022/12/25 09:53:49;;;;;;;26.63;13.65;;;8.20;99.90;;;;;;5162131;27;20077;-57
2022/12/25 09:56:25;;;;;;;30.52;14.77;;;8.70;99.90;;;;;;5147382;27;20054;-57
2022/12/25 09:58:52;;;;;;;26.50;14.15;;;8.00;99.90;;;;;;5141890;27;20043;-57
2022/12/25 10:01:33;;;;;;;31.63;14.65;;;8.70;99.90;;;;;;5141011;27;20054;-58
2022/12/25 10:04:21;;;;;;;27.00;14.17;;;8.20;99.90;;;;;;5141676;27;20051;-58
2022/12/25 10:07:12;;;;;;;28.92;15.10;;;8.40;99.90;;;;;;5141239;27;20490;-56
2022/12/25 10:10:06;;;;;;;29.77;13.65;;;8.00;99.90;;;;;;5140803;27;20068;-58
2022/12/25 10:12:49;;;;;;;30.77;14.20;;;8.60;99.90;;;;;;5141127;27;20055;-57
2022/12/25 10:15:35;;;;;;;24.60;13.27;;;8.50;99.90;;;;;;5140743;27;20058;-57
2022/12/25 10:18:19;;;;;;;24.25;13.55;;;8.00;99.90;;;;;;5140916;27;20055;-57
2022/12/25 10:20:54;;;;;;;23.52;12.13;;;8.10;99.90;;;;;;5141455;27;20122;-57
2022/12/25 10:23:37;;;;;;;30.30;12.85;;;8.70;99.90;;;;;;5140365;27;20043;-57
2022/12/25 10:26:15;;;;;;;26.58;13.18;;;8.80;99.90;;;;;;5105737;27;20100;-57
2022/12/25 10:29:02;;;;;;;20.40;12.05;;;8.00;99.90;;;;;;5141095;27;20040;-57
2022/12/25 10:31:32;;;;;;;20.67;11.82;;;8.80;99.90;;;;;;5139198;27;20118;-57
2022/12/25 10:33:58;;;;;;;24.55;11.80;;;8.10;99.90;;;;;;5141167;27;20039;-57
2022/12/25 10:36:27;;;;;;;23.77;11.70;;;8.80;99.90;;;;;;5140140;27;20057;-57
2022/12/25 10:38:53;;;;;;;20.80;11.63;;;8.10;99.90;;;;;;5141119;27;20444;-57
2022/12/25 10:41:33;;;;;;;21.17;10.82;;;8.20;99.90;;;;;;5140671;27;20116;-57
2022/12/25 10:43:59;;;;;;;20.27;12.02;;;8.60;99.90;;;;;;5140114;27;20042;-58
2022/12/25 10:46:27;;;;;;;20.65;10.57;;;8.70;99.90;;;;;;5141050;27;20053;-58
2022/12/25 10:49:00;;;;;;;22.50;11.13;;;8.20;99.90;;;;;;5140163;27;20046;-58
2022/12/25 10:51:26;;;;;;;23.55;11.45;;;8.20;99.90;;;;;;5140928;27;20107;-57
2022/12/25 10:53:52;;;;;;;25.17;10.95;;;8.30;99.90;;;;;;5139936;27;20031;-57
2022/12/25 10:56:18;;;;;;;19.23;10.82;;;8.50;99.90;;;;;;5155905;27;20066;-57
2022/12/25 10:58:44;;;;;;;21.23;10.82;;;8.80;99.90;;;;;;5161760;27;20390;-57
2022/12/25 11:01:10;;;;;;;19.52;10.85;;;8.50;99.90;;;;;;5160397;27;20043;-57
2022/12/25 11:03:44;;;;;;;17.88;10.85;;;8.20;99.90;;;;;;5161421;27;20045;-57
2022/12/25 11:06:28;;;;;;;20.02;11.00;;;8.40;99.90;;;;;;5160265;27;20042;-56
2022/12/25 11:08:58;;;;;;;22.77;12.63;;;8.70;99.90;;;;;;5161188;27;20103;-56
2022/12/25 11:11:25;;;;;;;24.17;10.27;;;8.90;99.90;;;;;;5160781;27;20042;-56
2022/12/25 11:13:54;;;;;;;19.95;10.93;;;8.40;99.90;;;;;;5160211;27;20083;-56
2022/12/25 11:16:30;;;;;;;24.98;11.85;;;8.30;99.90;;;;;;5161293;27;20094;-56
2022/12/25 11:18:57;;;;;;;19.60;10.75;;;8.80;99.90;;;;;;5160137;27;20050;-57
2022/12/25 11:21:28;;;;;;;19.30;10.85;;;8.30;99.90;;;;;;5160859;27;20031;-57
2022/12/25 11:23:59;;;;;;;20.10;11.57;;;8.90;99.90;;;;;;5160014;27;20098;-57
2022/12/25 11:26:27;;;;;;;19.17;10.60;;;8.50;99.90;;;;;;5160853;27;20038;-57
2022/12/25 11:28:54;;;;;;;23.35;10.45;;;8.40;99.90;;;;;;5160662;27;20311;-57
2022/12/25 11:31:35;;;;;;;19.50;10.07;;;8.90;99.90;;;;;;5159941;27;20586;-57
2022/12/25 11:34:07;;;;;;;22.98;10.77;;;9.00;99.90;;;;;;5160934;27;20057;-57
2022/12/25 11:36:41;;;;;;;26.67;11.85;;;8.80;99.90;;;;;;5159673;27;20039;-57
2022/12/25 11:39:12;;;;;;;20.45;10.68;;;8.40;99.90;;;;;;5160462;27;20030;-57
2022/12/25 11:41:40;;;;;;;18.08;10.52;;;8.40;99.90;;;;;;5160129;27;20039;-56
2022/12/25 11:44:26;;;;;;;17.98;9.95;;;8.40;99.90;;;;;;5159923;27;20458;-57
2022/12/25 11:46:54;;;;;;;18.35;9.60;;;9.00;99.90;;;;;;5141661;27;20035;-57
2022/12/25 11:49:21;;;;;;;18.40;10.10;;;8.50;99.90;;;;;;5159475;27;20027;-56
2022/12/25 11:51:51;;;;;;;20.80;10.50;;;8.50;99.90;;;;;;5124584;27;20117;-57
2022/12/25 11:54:30;;;;;;;17.77;9.05;;;8.50;99.90;;;;;;5159935;27;20445;-56
2022/12/25 11:56:58;;;;;;;17.55;9.25;;;8.70;99.90;;;;;;5138915;27;20071;-56
2022/12/25 11:59:26;;;;;;;18.48;10.30;;;8.50;99.90;;;;;;5139356;27;20035;-56
2022/12/25 12:02:20;;;;;;;16.90;9.60;;;8.50;99.90;;;;;;5138695;27;20061;-57
2022/12/25 12:04:54;;;;;;;19.67;9.65;;;8.50;99.90;;;;;;5139648;27;20047;-57
2022/12/25 12:07:32;;;;;;;17.40;8.30;;;8.70;99.90;;;;;;5139053;27;20524;-56
2022/12/25 12:10:14;;;;;;;20.70;9.48;;;9.00;99.90;;;;;;5120160;27;20058;-56
2022/12/25 12:13:11;;;;;;;17.15;9.23;;;9.00;99.90;;;;;;5138926;27;20040;-57
2022/12/25 12:15:43;;;;;;;18.52;8.77;;;8.70;99.90;;;;;;5137269;27;20058;-57
2022/12/25 12:18:25;;;;;;;19.13;9.55;;;8.90;99.90;;;;;;5139013;27;20095;-56
2022/12/25 12:21:16;;;;;;;17.80;9.85;;;8.90;99.90;;;;;;5138610;27;20035;-56
2022/12/25 12:23:48;;;;;;;21.55;10.75;;;9.00;99.90;;;;;;5138217;27;20039;-57
2022/12/25 12:26:26;;;;;;;20.48;10.52;;;8.60;99.90;;;;;;5139118;27;20581;-57
2022/12/25 12:28:56;;;;;;;24.02;10.77;;;8.50;99.90;;;;;;5138815;27;20043;-57
2022/12/25 12:31:23;;;;;;;16.23;9.23;;;9.00;99.90;;;;;;5138163;27;20483;-57
2022/12/25 12:33:56;;;;;;;16.55;9.10;;;8.80;99.90;;;;;;5120445;28;20046;-57
2022/12/25 12:36:25;;;;;;;;;;;8.50;99.90;;;;;;5138877;28;20047;-57
2022/12/25 12:38:52;;;;;;;15.90;9.15;;;9.00;99.90;;;;;;5139246;28;20014;-57
2022/12/25 12:41:20;;;;;;;18.75;9.57;;;8.80;99.90;;;;;;5138416;28;20049;-56
2022/12/25 12:43:55;;;;;;;20.13;9.23;;;8.80;99.90;;;;;;5138381;28;20036;-57
2022/12/25 12:46:24;;;;;;;16.42;8.07;;;8.60;99.90;;;;;;5138966;28;20054;-56
2022/12/25 12:48:52;;;;;;;13.98;8.52;;;8.80;99.90;;;;;;5138238;28;20087;-57
2022/12/25 12:51:30;;;;;;;15.93;7.97;;;8.80;99.90;;;;;;5138740;28;20043;-56
2022/12/25 12:54:24;;;;;;;17.90;8.77;;;8.90;99.90;;;;;;5138447;27;20088;-58
2022/12/25 12:57:02;;;;;;;14.60;7.93;;;8.70;99.90;;;;;;5162486;27;20125;-58
2022/12/25 12:59:45;;;;;;;26.15;12.07;;;8.60;99.90;;;;;;5163560;27;20035;-58
2022/12/25 13:02:53;;;;;;;24.75;13.48;;;8.90;99.90;;;;;;5162989;27;20494;-58
2022/12/25 13:05:54;;;;;;;19.20;9.80;;;9.10;99.90;;;;;;5144110;27;20404;-58
2022/12/25 13:08:20;;;;;;;14.90;10.05;;;8.90;99.90;;;;;;5163386;27;20046;-58
2022/12/25 13:10:49;;;;;;;15.23;9.70;;;8.90;99.90;;;;;;5162837;27;20043;-58
2022/12/25 13:13:26;;;;;;;16.55;9.60;;;8.50;99.90;;;;;;5162998;27;20455;-58
2022/12/25 13:15:52;;;;;;;16.92;9.65;;;9.00;99.90;;;;;;5163443;27;20569;-57
2022/12/25 13:18:18;;;;;;;19.48;10.65;;;8.80;99.90;;;;;;5162455;27;20075;-58
2022/12/25 13:21:00;;;;;;;20.33;10.93;;;9.00;99.90;;;;;;5144571;27;20046;-58
2022/12/25 13:23:32;;;;;;;23.17;13.93;;;8.50;99.90;;;;;;5126710;27;20046;-58
2022/12/25 13:26:11;;;;;;;15.63;8.10;;;8.60;99.90;;;;;;5163213;27;20103;-58
2022/12/25 13:28:37;;;;;;;20.45;9.60;;;8.60;99.90;;;;;;5163049;27;20070;-57
2022/12/25 13:31:11;;;;;;;17.60;8.93;;;8.60;99.90;;;;;;5162182;27;20044;-57
2022/12/25 13:33:38;;;;;;;16.13;8.15;;;8.60;99.90;;;;;;5163101;27;20200;-58
2022/12/25 13:36:09;;;;;;;14.73;8.05;;;9.20;99.90;;;;;;5162447;27;20035;-58
2022/12/25 13:38:35;;;;;;;13.73;7.53;;;9.10;99.90;;;;;;5162997;27;20095;-58
2022/12/25 13:43:46;;;;;;;19.48;8.93;;;8.60;99.90;;;;;;5162032;27;20050;-58
2022/12/25 13:46:13;;;;;;;18.48;9.68;;;8.60;99.90;;;;;;5163002;27;20042;-57
2022/12/25 13:48:40;;;;;;;25.58;18.33;;;8.60;99.90;;;;;;5161814;27;20564;-58
2022/12/25 13:51:14;;;;;;;16.50;11.02;;;8.90;99.90;;;;;;5144015;27;20481;-57
2022/12/25 13:53:40;;;;;;;19.55;10.60;;;9.10;99.90;;;;;;5143611;27;20063;-58
2022/12/25 13:56:11;;;;;;;18.27;8.80;;;9.20;99.90;;;;;;5148635;27;20064;-58
2022/12/25 13:58:38;;;;;;;17.27;9.18;;;8.60;99.90;;;;;;5141845;27;20035;-58
2022/12/25 14:01:05;;;;;;;16.98;9.23;;;9.00;99.90;;;;;;5141243;27;20091;-59
2022/12/25 14:03:36;;;;;;;16.27;8.82;;;8.70;99.90;;;;;;5141986;27;20042;-58
2022/12/25 14:06:04;;;;;;;32.45;17.90;;;8.70;99.90;;;;;;5140913;27;20043;-58
2022/12/25 14:08:32;;;;;;;21.70;12.70;;;8.80;99.90;;;;;;5141514;27;20050;-57
2022/12/25 14:11:03;;;;;;;22.15;12.20;;;8.80;99.90;;;;;;5122428;27;20050;-59
2022/12/25 14:13:31;;;;;;;17.07;10.53;;;8.60;99.90;;;;;;5140946;27;20100;-59
2022/12/25 14:15:58;;;;;;;18.45;10.07;;;9.00;99.90;;;;;;5145314;27;20623;-55
2022/12/25 14:18:24;;;;;;;20.92;9.82;;;8.90;99.90;;;;;;5158893;27;20043;-55
2022/12/25 14:20:58;;;;;;;18.15;10.13;;;9.10;99.90;;;;;;5160259;27;20042;-54
2022/12/25 14:23:25;;;;;;;25.55;16.20;;;8.90;99.90;;;;;;5159580;27;20122;-56
2022/12/25 14:25:51;;;;;;;26.17;14.02;;;9.30;99.90;;;;;;5161855;27;20038;-55
2022/12/25 14:28:21;;;;;;;24.38;12.60;;;8.70;99.90;;;;;;5161358;27;20043;-57
2022/12/25 14:30:47;;;;;;;23.50;13.45;;;9.30;99.90;;;;;;5159949;27;20111;-58
2022/12/25 14:33:17;;;;;;;21.30;11.43;;;8.60;99.90;;;;;;5141966;27;20489;-58
2022/12/25 14:35:44;;;;;;;16.92;9.60;;;8.60;99.90;;;;;;5159590;27;20530;-58
2022/12/25 14:38:21;;;;;;;16.55;9.32;;;8.80;99.90;;;;;;5159852;27;20476;-58
2022/12/25 14:41:17;;;;;;;16.40;8.70;;;9.10;99.90;;;;;;5161275;27;20042;-57
2022/12/25 14:43:53;;;;;;;14.50;8.18;;;9.20;99.90;;;;;;5124676;27;20055;-57
2022/12/25 14:46:28;;;;;;;15.65;8.80;;;8.60;99.90;;;;;;5161899;27;20057;-58